Time;durP1;ratioP1;P1;durP2;ratioP2;P2;SDS_P1;SDS_P2;PMS_P1;PMS_P2;Temp;Humidity;BMP_temperature;BMP_pressure;BME280_temperature;BME280_humidity;BME280_pressure;Samples;Min_cycle;Max_cycle;Signal;HPM_P1;HPM_P2
2022/07/21 00:01:05;;;;;;;23.90;10.73;;;;;;;;;;5054425;28;20261;-60
2022/07/21 00:03:31;;;;;;;22.02;10.05;;;;;;;;;;5030360;28;20266;-60
2022/07/21 00:05:57;;;;;;;20.52;9.90;;;;;;;;;;5037833;28;20178;-60
2022/07/21 00:08:23;;;;;;;22.60;9.80;;;;;;;;;;5073370;28;20274;-60
2022/07/21 00:10:50;;;;;;;18.23;8.95;;;;;;;;;;5054351;28;20668;-60
2022/07/21 00:13:16;;;;;;;20.70;9.65;;;;;;;;;;5055205;28;20207;-60
2022/07/21 00:15:42;;;;;;;18.17;8.35;;;;;;;;;;5065696;28;20248;-59
2022/07/21 00:18:08;;;;;;;20.52;9.18;;;;;;;;;;5072519;28;20186;-60
2022/07/21 00:20:34;;;;;;;17.40;8.40;;;;;;;;;;5055517;28;20178;-60
2022/07/21 00:23:00;;;;;;;16.42;8.23;;;;;;;;;;5072120;28;20216;-60
2022/07/21 00:25:27;;;;;;;17.05;8.48;;;;;;;;;;5055139;28;20182;-60
2022/07/21 00:27:53;;;;;;;23.33;8.88;;;;;;;;;;5053780;28;20182;-60
2022/07/21 00:30:19;;;;;;;14.68;7.93;;;;;;;;;;5058557;28;20198;-60
2022/07/21 00:32:45;;;;;;;16.85;8.55;;;;;;;;;;5053122;28;20222;-61
2022/07/21 00:35:12;;;;;;;16.08;8.20;;;;;;;;;;5066971;28;20182;-60
2022/07/21 00:37:38;;;;;;;20.20;9.00;;;;;;;;;;5060618;28;20189;-60
2022/07/21 00:40:05;;;;;;;19.27;8.80;;;;;;;;;;5058982;28;20213;-60
2022/07/21 00:42:32;;;;;;;18.27;8.75;;;;;;;;;;5069335;28;20209;-61
2022/07/21 00:44:59;;;;;;;15.65;8.40;;;;;;;;;;5064642;28;20179;-60
2022/07/21 00:47:27;;;;;;;17.75;8.80;;;;;;;;;;5067831;28;20232;-60
2022/07/21 00:49:54;;;;;;;21.70;9.60;;;;;;;;;;5072085;28;20182;-60
2022/07/21 00:52:21;;;;;;;19.00;9.32;;;;;;;;;;5071468;28;20226;-60
2022/07/21 00:54:47;;;;;;;22.50;9.70;;;;;;;;;;5047822;28;20219;-60
2022/07/21 00:57:14;;;;;;;21.63;10.05;;;;;;;;;;5065191;28;20194;-61
2022/07/21 00:59:42;;;;;;;22.20;11.18;;;;;;;;;;5071802;28;20561;-60
2022/07/21 01:02:08;;;;;;;24.38;11.60;;;;;;;;;;5052049;28;20208;-61
2022/07/21 01:04:35;;;;;;;24.67;13.43;;;;;;;;;;5051120;28;20270;-60
2022/07/21 01:07:02;;;;;;;21.38;14.02;;;;;;;;;;5056709;28;20670;-60
2022/07/21 01:09:29;;;;;;;23.52;14.32;;;;;;;;;;5071816;28;20187;-60
2022/07/21 01:11:55;;;;;;;24.25;14.63;;;;;;;;;;5070354;28;20293;-60
2022/07/21 01:14:21;;;;;;;21.52;15.95;;;;;;;;;;5072509;28;20220;-60
2022/07/21 01:16:47;;;;;;;24.98;16.52;;;;;;;;;;5068006;28;20198;-60
2022/07/21 01:19:14;;;;;;;25.13;17.17;;;;;;;;;;5068249;28;20222;-60
2022/07/21 01:21:41;;;;;;;26.80;16.83;;;;;;;;;;5071950;28;20179;-61
2022/07/21 01:24:08;;;;;;;25.23;17.55;;;;;;;;;;5052687;28;20271;-60
2022/07/21 01:26:41;;;;;;;25.70;17.50;;;;;;;;;;5059212;28;20182;-61
2022/07/21 01:29:09;;;;;;;25.00;18.13;;;;;;;;;;5057289;28;20187;-60
2022/07/21 01:31:36;;;;;;;28.33;18.88;;;;;;;;;;5059408;28;20281;-62
2022/07/21 01:34:03;;;;;;;26.20;19.60;;;;;;;;;;5064685;28;20256;-60
2022/07/21 01:36:29;;;;;;;27.20;19.92;;;;;;;;;;5060642;28;20186;-60
2022/07/21 01:41:40;;;;;;;27.92;21.08;;;;;;;;;;5056066;28;20190;-60
2022/07/21 01:44:08;;;;;;;32.25;22.15;;;;;;;;;;5052014;28;20271;-60
2022/07/21 01:46:35;;;;;;;28.27;22.63;;;;;;;;;;5066512;28;20265;-60
2022/07/21 01:49:02;;;;;;;31.30;23.25;;;;;;;;;;5049640;28;20250;-60
2022/07/21 01:51:29;;;;;;;31.85;22.90;;;;;;;;;;5062064;28;20252;-61
2022/07/21 01:53:55;;;;;;;36.95;24.70;;;;;;;;;;5069943;28;20215;-60
2022/07/21 01:56:23;;;;;;;31.95;23.60;;;;;;;;;;5055552;28;20209;-60
2022/07/21 01:58:50;;;;;;;33.40;25.48;;;;;;;;;;5057284;28;20520;-60
2022/07/21 02:01:20;;;;;;;33.58;24.60;;;;;;;;;;5061500;28;20175;-61
2022/07/21 02:03:46;;;;;;;36.80;25.75;;;;;;;;;;5067197;28;20269;-60
2022/07/21 02:06:13;;;;;;;36.50;25.17;;;;;;;;;;5068209;28;20190;-60
2022/07/21 02:08:39;;;;;;;34.78;25.17;;;;;;;;;;5076442;28;20186;-61
2022/07/21 02:11:07;;;;;;;36.13;27.25;;;;;;;;;;5049530;28;20276;-60
2022/07/21 02:13:33;;;;;;;32.90;25.45;;;;;;;;;;5057764;28;20679;-61
2022/07/21 02:15:59;;;;;;;35.35;27.38;;;;;;;;;;5038831;28;20693;-60
2022/07/21 02:18:25;;;;;;;37.60;27.05;;;;;;;;;;5075183;28;20240;-61
2022/07/21 02:20:51;;;;;;;38.08;28.67;;;;;;;;;;5070549;28;20179;-60
2022/07/21 02:23:18;;;;;;;36.88;27.17;;;;;;;;;;5056420;28;20282;-60
2022/07/21 02:25:44;;;;;;;38.97;27.15;;;;;;;;;;5066530;28;20204;-61
2022/07/21 02:28:11;;;;;;;35.78;27.40;;;;;;;;;;5074241;28;20198;-60
2022/07/21 02:30:38;;;;;;;37.10;27.27;;;;;;;;;;5074734;28;20240;-60
2022/07/21 02:33:04;;;;;;;35.92;26.88;;;;;;;;;;5072226;28;20202;-60
2022/07/21 02:35:30;;;;;;;39.22;26.60;;;;;;;;;;5075093;28;20198;-60
2022/07/21 02:37:56;;;;;;;35.25;27.80;;;;;;;;;;5071815;28;20655;-60
2022/07/21 02:40:23;;;;;;;37.80;27.55;;;;;;;;;;5075361;28;20276;-60
2022/07/21 02:42:49;;;;;;;42.92;28.13;;;;;;;;;;5051865;28;20186;-60
2022/07/21 02:45:16;;;;;;;40.08;28.48;;;;;;;;;;5045951;28;20233;-60
2022/07/21 02:47:52;;;;;;;40.78;28.40;;;;;;;;;;5057696;28;20643;-60
2022/07/21 02:50:19;;;;;;;38.97;28.02;;;;;;;;;;5063026;28;20469;-60
2022/07/21 02:52:46;;;;;;;37.08;28.88;;;;;;;;;;5071746;28;20663;-60
2022/07/21 02:55:12;;;;;;;39.30;29.17;;;;;;;;;;5056552;28;20210;-60
2022/07/21 02:57:40;;;;;;;38.25;27.80;;;;;;;;;;5056738;28;20233;-60
2022/07/21 03:00:07;;;;;;;39.67;27.75;;;;;;;;;;5073575;28;20181;-59
2022/07/21 03:02:33;;;;;;;40.25;29.25;;;;;;;;;;5072827;28;20190;-59
2022/07/21 03:04:59;;;;;;;39.10;28.50;;;;;;;;;;5028366;28;20571;-59
2022/07/21 03:07:25;;;;;;;39.38;28.65;;;;;;;;;;5068072;28;20273;-60
2022/07/21 03:09:51;;;;;;;41.72;29.65;;;;;;;;;;5044604;28;20288;-59
2022/07/21 03:12:18;;;;;;;40.67;29.77;;;;;;;;;;5067023;28;20190;-59
2022/07/21 03:14:44;;;;;;;41.70;30.20;;;;;;;;;;5049932;28;20699;-60
2022/07/21 03:17:10;;;;;;;41.92;29.55;;;;;;;;;;5056243;28;20328;-59
2022/07/21 03:19:36;;;;;;;42.03;30.17;;;;;;;;;;5059407;28;20712;-59
2022/07/21 03:22:03;;;;;;;42.05;30.25;;;;;;;;;;5049568;28;20206;-60
2022/07/21 03:24:29;;;;;;;42.53;31.13;;;;;;;;;;5072615;28;20174;-59
2022/07/21 03:26:56;;;;;;;41.30;30.33;;;;;;;;;;5073565;28;20265;-59
2022/07/21 03:29:22;;;;;;;45.22;30.98;;;;;;;;;;5072961;28;20195;-60
2022/07/21 03:31:48;;;;;;;41.08;30.60;;;;;;;;;;5063958;28;20183;-59
2022/07/21 03:34:15;;;;;;;45.78;31.10;;;;;;;;;;5057153;28;20215;-59
2022/07/21 03:36:41;;;;;;;41.78;31.05;;;;;;;;;;5067606;28;20194;-59
2022/07/21 03:39:07;;;;;;;41.28;31.45;;;;;;;;;;5073915;28;20166;-60
2022/07/21 03:41:33;;;;;;;46.25;33.83;;;;;;;;;;5070721;28;20205;-59
2022/07/21 03:43:59;;;;;;;47.90;32.92;;;;;;;;;;5056494;28;20194;-59
2022/07/21 03:46:25;;;;;;;48.58;31.80;;;;;;;;;;5070629;28;20190;-60
2022/07/21 03:48:51;;;;;;;50.13;33.50;;;;;;;;;;5053982;28;20196;-59
2022/07/21 03:51:18;;;;;;;44.03;32.08;;;;;;;;;;5071032;28;20714;-59
2022/07/21 03:53:44;;;;;;;44.47;32.25;;;;;;;;;;5073900;28;20207;-60
2022/07/21 03:56:10;;;;;;;48.00;32.95;;;;;;;;;;5071502;28;20211;-60
2022/07/21 03:58:36;;;;;;;44.35;31.83;;;;;;;;;;5071074;28;20181;-61
2022/07/21 04:01:02;;;;;;;47.55;33.78;;;;;;;;;;5072875;28;20331;-59
2022/07/21 04:03:30;;;;;;;46.78;33.33;;;;;;;;;;5073689;28;20182;-60
2022/07/21 04:05:57;;;;;;;49.00;34.78;;;;;;;;;;5073068;28;20274;-60
2022/07/21 04:08:23;;;;;;;52.25;35.55;;;;;;;;;;5059274;28;20191;-61
2022/07/21 04:10:49;;;;;;;49.95;34.45;;;;;;;;;;5055480;28;20186;-59
2022/07/21 04:13:15;;;;;;;49.33;34.63;;;;;;;;;;5071191;28;20202;-59
2022/07/21 04:15:42;;;;;;;48.97;34.28;;;;;;;;;;5071496;28;20715;-59
2022/07/21 04:18:09;;;;;;;47.13;34.20;;;;;;;;;;5072291;28;20190;-59
2022/07/21 04:20:35;;;;;;;46.75;34.10;;;;;;;;;;5071504;28;20543;-59
2022/07/21 04:23:01;;;;;;;47.80;33.85;;;;;;;;;;5069891;28;20187;-59
2022/07/21 04:25:29;;;;;;;47.90;33.78;;;;;;;;;;5073130;28;20174;-60
2022/07/21 04:27:55;;;;;;;54.40;35.58;;;;;;;;;;5070225;28;20186;-60
2022/07/21 04:30:23;;;;;;;50.80;34.88;;;;;;;;;;5049772;28;20243;-60
2022/07/21 04:32:49;;;;;;;49.47;33.92;;;;;;;;;;5070791;28;20269;-59
2022/07/21 04:35:16;;;;;;;53.20;35.75;;;;;;;;;;5056033;28;20652;-59
2022/07/21 04:37:43;;;;;;;51.03;35.58;;;;;;;;;;5050520;28;20189;-60
2022/07/21 04:40:10;;;;;;;51.85;37.65;;;;;;;;;;5045798;28;20682;-59
2022/07/21 04:42:36;;;;;;;51.50;35.70;;;;;;;;;;5056871;28;20191;-60
2022/07/21 04:45:03;;;;;;;53.28;36.80;;;;;;;;;;5050464;28;20190;-59
2022/07/21 04:47:29;;;;;;;53.28;37.63;;;;;;;;;;5070961;28;20182;-59
2022/07/21 04:49:55;;;;;;;50.63;36.13;;;;;;;;;;5070852;28;20596;-61
2022/07/21 04:52:22;;;;;;;55.10;37.88;;;;;;;;;;5068272;28;20710;-60
2022/07/21 04:54:48;;;;;;;52.75;37.58;;;;;;;;;;5045770;28;20710;-60
2022/07/21 04:57:14;;;;;;;54.97;37.83;;;;;;;;;;5052417;28;20189;-63
2022/07/21 04:59:40;;;;;;;57.20;36.58;;;;;;;;;;5052462;28;20288;-59
2022/07/21 05:02:07;;;;;;;53.42;35.15;;;;;;;;;;5036681;28;20286;-61
2022/07/21 05:04:33;;;;;;;58.78;38.65;;;;;;;;;;5042563;28;20682;-59
2022/07/21 05:07:00;;;;;;;54.67;36.63;;;;;;;;;;5071948;28;20194;-59
2022/07/21 05:09:26;;;;;;;54.00;37.55;;;;;;;;;;5053140;28;20644;-59
2022/07/21 05:11:52;;;;;;;54.95;37.05;;;;;;;;;;5064115;28;20663;-60
2022/07/21 05:14:18;;;;;;;51.33;35.97;;;;;;;;;;5061451;28;20279;-61
2022/07/21 05:16:45;;;;;;;52.88;36.42;;;;;;;;;;5072589;28;20220;-60
2022/07/21 05:19:12;;;;;;;56.30;37.13;;;;;;;;;;5037831;28;20218;-60
2022/07/21 05:21:38;;;;;;;51.65;37.22;;;;;;;;;;5042681;28;20190;-60
2022/07/21 05:24:04;;;;;;;55.45;36.08;;;;;;;;;;5072442;28;20186;-60
2022/07/21 05:26:31;;;;;;;55.72;36.28;;;;;;;;;;5071943;28;20202;-60
2022/07/21 05:28:57;;;;;;;53.10;35.78;;;;;;;;;;5068915;28;20269;-60
2022/07/21 05:31:23;;;;;;;52.60;36.65;;;;;;;;;;5048427;28;20197;-61
2022/07/21 05:33:49;;;;;;;54.90;36.40;;;;;;;;;;5052305;28;20210;-61
2022/07/21 05:36:15;;;;;;;56.20;36.47;;;;;;;;;;5066632;28;20190;-61
2022/07/21 05:38:41;;;;;;;55.08;36.70;;;;;;;;;;5065811;28;20187;-62
2022/07/21 05:41:08;;;;;;;52.03;36.67;;;;;;;;;;5065405;28;20658;-61
2022/07/21 05:43:34;;;;;;;53.63;36.55;;;;;;;;;;5055319;28;20218;-61
2022/07/21 05:46:00;;;;;;;58.72;36.25;;;;;;;;;;5068061;28;21861;-61
2022/07/21 05:48:29;;;;;;;58.22;37.05;;;;;;;;;;5073695;28;20179;-60
2022/07/21 05:50:56;;;;;;;58.13;37.65;;;;;;;;;;5063778;28;20833;-63
2022/07/21 05:53:22;;;;;;;57.30;34.22;;;;;;;;;;5073976;28;20299;-63
2022/07/21 05:55:48;;;;;;;56.67;33.00;;;;;;;;;;5062259;28;20203;-64
2022/07/21 05:58:15;;;;;;;52.25;31.50;;;;;;;;;;5068419;28;20202;-63
2022/07/21 06:00:41;;;;;;;58.33;33.67;;;;;;;;;;5051568;28;20198;-62
2022/07/21 06:03:08;;;;;;;59.88;32.42;;;;;;;;;;5056569;28;20198;-62
2022/07/21 06:05:34;;;;;;;62.83;33.50;;;;;;;;;;5063490;28;20253;-63
2022/07/21 06:08:01;;;;;;;52.13;33.55;;;;;;;;;;5073907;28;20290;-60
2022/07/21 06:10:27;;;;;;;68.53;31.52;;;;;;;;;;5050982;28;20183;-64
2022/07/21 06:12:53;;;;;;;58.90;33.33;;;;;;;;;;5074108;28;20316;-63
2022/07/21 06:15:20;;;;;;;62.67;30.08;;;;;;;;;;5072026;28;20269;-62
2022/07/21 06:17:46;;;;;;;79.15;35.15;;;;;;;;;;5067059;28;20228;-62
2022/07/21 06:20:13;;;;;;;69.25;33.67;;;;;;;;;;5071578;28;20183;-63
2022/07/21 06:22:39;;;;;;;62.67;30.83;;;;;;;;;;5074824;28;20190;-62
2022/07/21 06:25:06;;;;;;;63.60;31.88;;;;;;;;;;5075254;28;20251;-62
2022/07/21 06:27:32;;;;;;;56.97;31.70;;;;;;;;;;5073358;28;20217;-63
2022/07/21 06:29:59;;;;;;;70.70;33.45;;;;;;;;;;5066531;28;20194;-62
2022/07/21 06:32:26;;;;;;;58.20;31.92;;;;;;;;;;5040765;28;20183;-63
2022/07/21 06:34:52;;;;;;;64.32;35.38;;;;;;;;;;5067025;28;20592;-62
2022/07/21 06:37:18;;;;;;;65.53;35.33;;;;;;;;;;5065675;28;20664;-61
2022/07/21 06:39:44;;;;;;;57.97;33.42;;;;;;;;;;5055165;28;22114;-60
2022/07/21 06:42:11;;;;;;;63.72;33.35;;;;;;;;;;5065055;28;20179;-61
2022/07/21 06:44:37;;;;;;;66.97;34.55;;;;;;;;;;5072867;28;20666;-62
2022/07/21 06:47:04;;;;;;;66.53;37.05;;;;;;;;;;5051243;28;20202;-61
2022/07/21 06:49:31;;;;;;;70.03;38.30;;;;;;;;;;5058327;28;20191;-62
2022/07/21 06:51:57;;;;;;;73.95;37.22;;;;;;;;;;5063602;28;20226;-63
2022/07/21 06:54:23;;;;;;;61.90;33.53;;;;;;;;;;5073602;28;20288;-63
2022/07/21 06:56:49;;;;;;;66.25;37.67;;;;;;;;;;5067766;28;20191;-64
2022/07/21 06:59:16;;;;;;;52.33;31.80;;;;;;;;;;5071441;28;20198;-65
2022/07/21 07:01:42;;;;;;;52.63;30.52;;;;;;;;;;5071151;28;20182;-65
2022/07/21 07:04:08;;;;;;;54.92;33.55;;;;;;;;;;5063521;28;20189;-64
2022/07/21 07:06:34;;;;;;;67.30;33.63;;;;;;;;;;5052415;28;20193;-62
2022/07/21 07:09:00;;;;;;;52.72;30.92;;;;;;;;;;5045444;28;20182;-62
2022/07/21 07:11:26;;;;;;;53.38;31.70;;;;;;;;;;5057426;28;20648;-62
2022/07/21 07:13:52;;;;;;;63.90;34.00;;;;;;;;;;5039779;28;20215;-63
2022/07/21 07:16:18;;;;;;;49.83;30.17;;;;;;;;;;5068783;28;20262;-63
2022/07/21 07:18:45;;;;;;;51.35;30.65;;;;;;;;;;5067662;28;20244;-65
2022/07/21 07:21:11;;;;;;;50.75;29.63;;;;;;;;;;5070833;28;20228;-64
2022/07/21 07:23:37;;;;;;;56.22;29.95;;;;;;;;;;5038298;28;20679;-63
2022/07/21 07:26:03;;;;;;;57.38;31.17;;;;;;;;;;5069432;28;20179;-63
2022/07/21 07:28:29;;;;;;;49.20;29.52;;;;;;;;;;5070178;28;20195;-63
2022/07/21 07:30:55;;;;;;;52.97;31.90;;;;;;;;;;5068139;28;20190;-62
2022/07/21 07:33:21;;;;;;;51.03;30.10;;;;;;;;;;5053873;28;20210;-63
2022/07/21 07:35:48;;;;;;;53.60;29.48;;;;;;;;;;5071065;28;20187;-62
2022/07/21 07:38:15;;;;;;;49.67;28.83;;;;;;;;;;5047816;28;20183;-64
2022/07/21 07:40:41;;;;;;;45.65;27.73;;;;;;;;;;5063080;28;20227;-64
2022/07/21 07:43:07;;;;;;;47.22;29.05;;;;;;;;;;5053988;28;20218;-63
2022/07/21 07:45:35;;;;;;;43.58;28.90;;;;;;;;;;5035615;28;20191;-65
2022/07/21 07:48:01;;;;;;;50.45;26.88;;;;;;;;;;5066931;28;20218;-64
2022/07/21 07:50:28;;;;;;;44.10;28.17;;;;;;;;;;5059033;28;20178;-66
2022/07/21 07:52:55;;;;;;;41.92;27.92;;;;;;;;;;5070455;28;20221;-68
2022/07/21 07:55:21;;;;;;;41.60;23.25;;;;;;;;;;5071941;28;20718;-69
2022/07/21 07:57:47;;;;;;;25.40;18.25;;;;;;;;;;5073092;28;20182;-70
2022/07/21 08:00:15;;;;;;;23.48;15.57;;;;;;;;;;5069223;28;20478;-70
2022/07/21 08:02:42;;;;;;;21.80;14.38;;;;;;;;;;5071593;28;20195;-69
2022/07/21 08:05:08;;;;;;;22.77;13.13;;;;;;;;;;5073218;28;20644;-72
2022/07/21 08:07:35;;;;;;;22.60;12.50;;;;;;;;;;5071836;28;20182;-72
2022/07/21 08:10:01;;;;;;;23.35;13.18;;;;;;;;;;5073604;28;20255;-72
2022/07/21 08:12:27;;;;;;;18.27;12.35;;;;;;;;;;5071135;28;20193;-71
2022/07/21 08:14:53;;;;;;;20.23;12.48;;;;;;;;;;5055873;28;20676;-72
2022/07/21 08:17:20;;;;;;;25.50;14.20;;;;;;;;;;5071737;28;20199;-69
2022/07/21 08:19:46;;;;;;;21.17;13.07;;;;;;;;;;5055719;28;20181;-70
2022/07/21 08:22:12;;;;;;;18.95;13.60;;;;;;;;;;5066551;28;20218;-72
2022/07/21 08:24:38;;;;;;;20.88;12.98;;;;;;;;;;5073223;28;20206;-73
2022/07/21 08:27:04;;;;;;;22.30;13.20;;;;;;;;;;5071876;28;20183;-71
2022/07/21 08:29:30;;;;;;;18.60;12.35;;;;;;;;;;5071373;28;20174;-74
2022/07/21 08:31:56;;;;;;;21.40;13.13;;;;;;;;;;5072821;28;20189;-74
2022/07/21 08:34:24;;;;;;;25.52;14.20;;;;;;;;;;5073107;28;20218;-76
2022/07/21 08:36:51;;;;;;;24.70;15.95;;;;;;;;;;5071346;28;20695;-69
2022/07/21 08:39:18;;;;;;;28.75;15.23;;;;;;;;;;5073915;28;20537;-77
2022/07/21 08:41:45;;;;;;;25.30;15.60;;;;;;;;;;5073758;28;20182;-77
2022/07/21 08:44:11;;;;;;;26.45;15.75;;;;;;;;;;5071884;28;20284;-72
2022/07/21 08:46:38;;;;;;;29.98;17.73;;;;;;;;;;5070887;28;20182;-71
2022/07/21 08:49:05;;;;;;;30.88;18.48;;;;;;;;;;5070806;28;20186;-71
2022/07/21 08:51:34;;;;;;;32.88;17.98;;;;;;;;;;5043880;28;20222;-71
2022/07/21 08:54:01;;;;;;;30.23;18.48;;;;;;;;;;5032526;28;20186;-67
2022/07/21 08:56:27;;;;;;;38.63;18.63;;;;;;;;;;5039372;28;20187;-71
2022/07/21 08:58:53;;;;;;;34.08;17.88;;;;;;;;;;5034196;28;20221;-70
2022/07/21 09:01:20;;;;;;;30.10;17.02;;;;;;;;;;5049830;28;20180;-71
2022/07/21 09:03:46;;;;;;;33.35;19.35;;;;;;;;;;5050871;28;20246;-71
2022/07/21 09:06:15;;;;;;;30.98;17.30;;;;;;;;;;5024882;28;20274;-71
2022/07/21 09:08:42;;;;;;;30.95;17.13;;;;;;;;;;5055677;28;20260;-75
2022/07/21 09:11:09;;;;;;;32.15;16.92;;;;;;;;;;5055293;28;20175;-76
2022/07/21 09:13:35;;;;;;;28.83;17.58;;;;;;;;;;5038811;28;20186;-75
2022/07/21 09:16:02;;;;;;;29.52;15.75;;;;;;;;;;5056124;28;20189;-78
2022/07/21 09:18:29;;;;;;;34.92;17.55;;;;;;;;;;5044095;28;20179;-74
2022/07/21 09:20:57;;;;;;;32.80;17.15;;;;;;;;;;5047730;28;22975;-77
2022/07/21 09:23:23;;;;;;;34.10;17.13;;;;;;;;;;5047464;28;20208;-78
2022/07/21 09:25:51;;;;;;;30.23;17.38;;;;;;;;;;5037127;28;20187;-78
2022/07/21 09:28:18;;;;;;;29.60;17.85;;;;;;;;;;5036572;28;20629;-77
2022/07/21 09:31:06;;;;;;;28.85;17.65;;;;;;;;;;5037270;28;20194;-76
2022/07/21 09:33:35;;;;;;;32.13;17.30;;;;;;;;;;5056106;28;20213;-72
2022/07/21 09:36:08;;;;;;;34.20;18.30;;;;;;;;;;5054723;28;20179;-73
2022/07/21 09:38:36;;;;;;;34.60;19.05;;;;;;;;;;5038010;28;20186;-71
2022/07/21 09:41:15;;;;;;;34.30;17.90;;;;;;;;;;5054619;28;20233;-70
2022/07/21 09:43:43;;;;;;;29.63;17.25;;;;;;;;;;5049710;28;20207;-69
2022/07/21 09:46:14;;;;;;;27.50;17.50;;;;;;;;;;5038355;28;20194;-66
2022/07/21 09:48:41;;;;;;;30.95;16.85;;;;;;;;;;5053611;28;20179;-70
2022/07/21 09:51:30;;;;;;;27.00;15.45;;;;;;;;;;5049878;28;20231;-69
2022/07/21 09:53:57;;;;;;;22.23;15.75;;;;;;;;;;5044033;28;20551;-69
2022/07/21 09:56:23;;;;;;;21.95;15.02;;;;;;;;;;5033314;28;20273;-70
2022/07/21 09:58:51;;;;;;;20.55;10.50;;;;;;;;;;5035548;28;20179;-69
2022/07/21 10:01:18;;;;;;;21.80;11.32;;;;;;;;;;5052342;28;20180;-68
2022/07/21 10:03:45;;;;;;;19.65;11.57;;;;;;;;;;5015221;28;20215;-68
2022/07/21 10:06:11;;;;;;;27.63;12.40;;;;;;;;;;5047694;28;20213;-67
2022/07/21 10:08:38;;;;;;;21.40;11.43;;;;;;;;;;5055117;28;20179;-69
2022/07/21 10:11:05;;;;;;;22.38;11.93;;;;;;;;;;5053997;28;20187;-69
2022/07/21 10:13:31;;;;;;;22.50;11.30;;;;;;;;;;5053602;28;20238;-68
2022/07/21 10:15:58;;;;;;;17.85;10.15;;;;;;;;;;5053893;28;20203;-69
2022/07/21 10:18:28;;;;;;;20.42;10.93;;;;;;;;;;5051326;28;20530;-67
2022/07/21 10:21:15;;;;;;;14.18;8.98;;;;;;;;;;5048621;28;20183;-68
2022/07/21 10:23:42;;;;;;;18.52;9.20;;;;;;;;;;5054175;28;20203;-69
2022/07/21 10:26:09;;;;;;;17.63;10.02;;;;;;;;;;5052968;28;20240;-68
2022/07/21 10:28:36;;;;;;;17.75;10.52;;;;;;;;;;5054609;28;20233;-68
2022/07/21 10:31:15;;;;;;;15.55;10.27;;;;;;;;;;5049199;28;20183;-68
2022/07/21 10:33:50;;;;;;;12.05;9.27;;;;;;;;;;5047991;28;20206;-68
2022/07/21 10:36:28;;;;;;;14.60;9.43;;;;;;;;;;5035395;28;20187;-67
2022/07/21 10:39:07;;;;;;;10.98;7.85;;;;;;;;;;5035066;28;20234;-67
2022/07/21 10:41:52;;;;;;;14.75;8.70;;;;;;;;;;5040422;28;20490;-65
2022/07/21 10:44:29;;;;;;;13.98;8.32;;;;;;;;;;5034886;28;20294;-65
2022/07/21 10:47:08;;;;;;;14.63;7.07;;;;;;;;;;5053440;28;20221;-65
2022/07/21 10:49:43;;;;;;;9.65;6.93;;;;;;;;;;5066556;28;20261;-65
2022/07/21 10:52:28;;;;;;;16.70;7.18;;;;;;;;;;5067390;28;20246;-63
2022/07/21 10:55:13;;;;;;;9.68;7.50;;;;;;;;;;5073073;28;20295;-63
2022/07/21 10:57:40;;;;;;;13.48;8.77;;;;;;;;;;5074131;28;20186;-62
2022/07/21 11:00:20;;;;;;;15.07;9.40;;;;;;;;;;5058955;28;20323;-62
2022/07/21 11:02:54;;;;;;;15.65;9.50;;;;;;;;;;5054201;28;20190;-62
2022/07/21 11:05:20;;;;;;;17.60;11.18;;;;;;;;;;5071137;28;20644;-62
2022/07/21 11:08:05;;;;;;;20.27;10.80;;;;;;;;;;5070472;28;20190;-62
2022/07/21 11:10:32;;;;;;;17.80;10.30;;;;;;;;;;5055561;28;20644;-62
2022/07/21 11:12:58;;;;;;;19.33;10.23;;;;;;;;;;5070549;28;20213;-62
2022/07/21 11:15:45;;;;;;;18.73;10.98;;;;;;;;;;5072602;28;20261;-61
2022/07/21 11:18:11;;;;;;;14.80;9.18;;;;;;;;;;5071027;28;20174;-62
2022/07/21 11:20:37;;;;;;;11.93;8.45;;;;;;;;;;5071176;28;20167;-62
2022/07/21 11:23:03;;;;;;;12.07;8.57;;;;;;;;;;5073416;28;20214;-62
2022/07/21 11:25:30;;;;;;;15.00;7.82;;;;;;;;;;5054677;28;20199;-63
2022/07/21 11:27:56;;;;;;;10.55;7.07;;;;;;;;;;5033289;28;20633;-63
2022/07/21 11:30:22;;;;;;;10.88;6.90;;;;;;;;;;5053463;28;20271;-63
2022/07/21 11:32:48;;;;;;;11.60;6.75;;;;;;;;;;5071843;28;20261;-62
2022/07/21 11:35:15;;;;;;;10.80;6.85;;;;;;;;;;5055187;28;20649;-63
2022/07/21 11:37:42;;;;;;;20.02;7.18;;;;;;;;;;5060219;28;20591;-62
2022/07/21 11:40:12;;;;;;;11.60;7.13;;;;;;;;;;5073081;28;20231;-63
2022/07/21 11:42:39;;;;;;;15.60;6.40;;;;;;;;;;5037831;28;20295;-62
2022/07/21 11:45:06;;;;;;;10.32;5.35;;;;;;;;;;5073127;28;20652;-62
2022/07/21 11:47:33;;;;;;;10.63;5.20;;;;;;;;;;5062246;28;20179;-64
2022/07/21 11:50:00;;;;;;;11.77;5.70;;;;;;;;;;5055679;28;20185;-65
2022/07/21 11:52:29;;;;;;;14.85;5.60;;;;;;;;;;5070126;28;20356;-66
2022/07/21 11:54:55;;;;;;;16.38;6.05;;;;;;;;;;5073343;28;20171;-68
2022/07/21 11:57:23;;;;;;;14.52;6.25;;;;;;;;;;5071409;28;20186;-69
2022/07/21 11:59:50;;;;;;;13.45;7.10;;;;;;;;;;5064430;28;20185;-69
2022/07/21 12:02:20;;;;;;;12.18;6.97;;;;;;;;;;5065398;28;20178;-70
2022/07/21 12:04:55;;;;;;;18.83;9.85;;;;;;;;;;5055089;28;20206;-70
2022/07/21 12:07:35;;;;;;;15.68;8.50;;;;;;;;;;5071935;28;20186;-70
2022/07/21 12:10:04;;;;;;;13.02;7.88;;;;;;;;;;5069795;28;20179;-66
2022/07/21 12:12:33;;;;;;;14.68;8.55;;;;;;;;;;5050376;28;20179;-68
2022/07/21 12:15:19;;;;;;;13.98;8.95;;;;;;;;;;5070375;28;20218;-67
2022/07/21 12:17:46;;;;;;;20.90;9.77;;;;;;;;;;5070765;28;20186;-67
2022/07/21 12:20:12;;;;;;;17.52;10.80;;;;;;;;;;5072203;28;20183;-68
2022/07/21 12:22:42;;;;;;;24.33;11.52;;;;;;;;;;5069323;28;20189;-67
2022/07/21 12:25:10;;;;;;;19.33;13.00;;;;;;;;;;5052925;28;20188;-68
2022/07/21 12:27:37;;;;;;;23.25;12.65;;;;;;;;;;5069043;28;20498;-67
2022/07/21 12:30:04;;;;;;;22.45;13.27;;;;;;;;;;5058657;28;20233;-67
2022/07/21 12:32:50;;;;;;;22.55;13.93;;;;;;;;;;5046052;28;20647;-67
2022/07/21 12:35:23;;;;;;;22.63;13.60;;;;;;;;;;5053316;28;20240;-66
2022/07/21 12:37:52;;;;;;;25.27;14.65;;;;;;;;;;5066198;28;20182;-67
2022/07/21 12:40:20;;;;;;;26.00;15.55;;;;;;;;;;5034597;28;20608;-67
2022/07/21 12:42:46;;;;;;;25.27;16.17;;;;;;;;;;5067298;28;20190;-65
2022/07/21 12:45:13;;;;;;;26.30;17.02;;;;;;;;;;5069278;28;20236;-64
2022/07/21 12:47:40;;;;;;;25.73;15.80;;;;;;;;;;5068365;28;20255;-64
2022/07/21 12:50:08;;;;;;;26.42;17.52;;;;;;;;;;5053772;28;20191;-65
2022/07/21 12:52:34;;;;;;;26.92;18.77;;;;;;;;;;5053794;28;20687;-64
2022/07/21 12:55:01;;;;;;;23.67;17.67;;;;;;;;;;5066449;28;20237;-63
2022/07/21 12:57:28;;;;;;;25.45;18.15;;;;;;;;;;5070116;28;20201;-64
2022/07/21 12:59:54;;;;;;;25.35;18.88;;;;;;;;;;5071926;28;20185;-64
2022/07/21 13:02:20;;;;;;;25.02;20.20;;;;;;;;;;5069693;28;20178;-64
2022/07/21 13:04:47;;;;;;;24.48;18.23;;;;;;;;;;5072449;28;20659;-62
2022/07/21 13:07:13;;;;;;;23.65;18.77;;;;;;;;;;5062039;28;20285;-63
2022/07/21 13:09:39;;;;;;;24.23;19.13;;;;;;;;;;5051460;28;20191;-62
2022/07/21 13:12:06;;;;;;;25.48;18.55;;;;;;;;;;5044367;28;20198;-62
2022/07/21 13:14:32;;;;;;;21.30;17.65;;;;;;;;;;5034416;28;20531;-62
2022/07/21 13:16:59;;;;;;;22.55;17.65;;;;;;;;;;5063913;28;20190;-62
2022/07/21 13:19:25;;;;;;;26.48;17.35;;;;;;;;;;5072416;28;20261;-62
2022/07/21 13:21:51;;;;;;;23.38;16.98;;;;;;;;;;5069006;28;20212;-62
2022/07/21 13:24:18;;;;;;;22.52;13.98;;;;;;;;;;5054061;28;20221;-61
2022/07/21 13:26:44;;;;;;;28.15;13.95;;;;;;;;;;5061317;28;20201;-60
2022/07/21 13:29:10;;;;;;;19.38;8.60;;;;;;;;;;5071240;28;20179;-60
2022/07/21 13:31:36;;;;;;;20.08;6.85;;;;;;;;;;5070937;28;20244;-61
2022/07/21 13:34:07;;;;;;;20.50;5.18;;;;;;;;;;5052561;28;20185;-60
2022/07/21 13:36:37;;;;;;;20.02;4.47;;;;;;;;;;5065994;28;20210;-60
2022/07/21 13:39:07;;;;;;;18.40;3.97;;;;;;;;;;5041854;28;20190;-60
2022/07/21 13:41:33;;;;;;;18.13;3.75;;;;;;;;;;5068283;28;20182;-60
2022/07/21 13:44:00;;;;;;;24.13;4.50;;;;;;;;;;5058482;28;20249;-60
2022/07/21 13:46:27;;;;;;;20.50;4.10;;;;;;;;;;5065127;28;20187;-61
2022/07/21 13:48:54;;;;;;;16.70;4.57;;;;;;;;;;5071672;28;20582;-60
2022/07/21 13:51:20;;;;;;;17.58;4.32;;;;;;;;;;5071770;28;20186;-60
2022/07/21 13:53:47;;;;;;;20.23;4.18;;;;;;;;;;5054853;28;20226;-60
2022/07/21 13:56:14;;;;;;;13.15;3.40;;;;;;;;;;5060302;28;20190;-60
2022/07/21 13:58:41;;;;;;;24.73;3.65;;;;;;;;;;5056729;28;20723;-60
2022/07/21 14:01:08;;;;;;;22.55;4.72;;;;;;;;;;5044603;28;20224;-60
2022/07/21 14:03:37;;;;;;;20.42;4.00;;;;;;;;;;5071774;28;20248;-60
2022/07/21 14:06:03;;;;;;;19.27;3.90;;;;;;;;;;5070064;28;20210;-60
2022/07/21 14:08:29;;;;;;;21.60;3.70;;;;;;;;;;5075635;28;20178;-59
2022/07/21 14:10:55;;;;;;;17.88;4.03;;;;;;;;;;5071439;28;20182;-60
2022/07/21 14:13:21;;;;;;;14.60;3.60;;;;;;;;;;5075369;28;20670;-59
2022/07/21 14:15:47;;;;;;;16.23;3.42;;;;;;;;;;5071428;28;20185;-60
2022/07/21 14:18:13;;;;;;;17.50;3.92;;;;;;;;;;5054712;28;20197;-61
2022/07/21 14:20:40;;;;;;;11.68;3.60;;;;;;;;;;5053270;28;20261;-61
2022/07/21 14:23:06;;;;;;;14.55;3.25;;;;;;;;;;5074840;28;20650;-60
2022/07/21 14:25:32;;;;;;;11.38;3.05;;;;;;;;;;5075265;28;20284;-60